Time;durP1;ratioP1;P1;durP2;ratioP2;P2;SDS_P1;SDS_P2;PMS_P1;PMS_P2;Temp;Humidity;BMP_temperature;BMP_pressure;BME280_temperature;BME280_humidity;BME280_pressure;Samples;Min_cycle;Max_cycle;Signal;HPM_P1;HPM_P2
2022/04/06 00:01:46;;;;;;;16.13;8.50;;;205.60;1920.00;;;;;;5030189;28;20038;-54
2022/04/06 00:04:12;;;;;;;10.00;6.88;;;205.60;1920.00;;;;;;5030318;28;20021;-59
2022/04/06 00:06:38;;;;;;;73.90;34.78;;;205.40;1945.60;;;;;;5030263;28;20230;-55
2022/04/06 00:09:04;;;;;;;43.08;22.30;;;205.50;1945.60;;;;;;5030515;28;20515;-55
2022/04/06 00:11:30;;;;;;;26.27;14.25;;;205.50;1945.60;;;;;;5030485;28;20051;-52
2022/04/06 00:13:57;;;;;;;15.57;8.10;;;205.60;1945.60;;;;;;5030031;28;20083;-58
2022/04/06 00:16:23;;;;;;;7.82;6.38;;;205.50;1945.60;;;;;;5030310;28;20025;-56
2022/04/06 00:18:48;;;;;;;14.80;8.77;;;205.40;1971.20;;;;;;5030144;28;20044;-54
2022/04/06 00:21:14;;;;;;;59.72;31.25;;;205.20;2022.40;;;;;;5029950;28;20083;-53
2022/04/06 00:23:40;;;;;;;39.45;23.55;;;205.20;2022.40;;;;;;5030241;28;20022;-56
2022/04/06 00:26:06;;;;;;;22.70;12.40;;;205.20;2022.40;;;;;;5030047;28;20060;-55
2022/04/06 00:28:31;;;;;;;12.93;8.18;;;205.20;2048.00;;;;;;5029963;28;20049;-58
2022/04/06 00:30:57;;;;;;;12.77;7.97;;;205.20;2048.00;;;;;;5030083;28;20045;-53
2022/04/06 00:33:23;;;;;;;14.32;8.93;;;205.10;2099.20;;;;;;5029820;28;20028;-53
2022/04/06 00:35:50;;;;;;;17.15;9.60;;;205.00;2124.80;;;;;;5029922;28;20037;-52
2022/04/06 00:38:16;;;;;;;26.95;15.18;;;205.00;2124.80;;;;;;5030071;28;20076;-57
2022/04/06 00:40:42;;;;;;;15.07;9.05;;;205.00;2124.80;;;;;;5030122;28;20476;-53
2022/04/06 00:43:12;;;;;;;21.77;13.38;;;204.90;2201.60;;;;;;5030155;28;20029;-57
2022/04/06 00:45:42;;;;;;;13.88;8.93;;;204.80;2201.60;;;;;;5029976;28;20111;-53
2022/04/06 00:48:09;;;;;;;13.48;7.93;;;204.90;2201.60;;;;;;5029812;28;20383;-54
2022/04/06 00:50:37;;;;;;;10.98;8.27;;;204.80;2201.60;;;;;;5030034;28;20032;-54
2022/04/06 00:53:04;;;;;;;9.75;6.13;;;204.80;2227.20;;;;;;5029928;28;20018;-54
2022/04/06 00:55:35;;;;;;;10.38;6.85;;;204.80;2252.80;;;;;;5029744;28;20037;-58
2022/04/06 00:58:02;;;;;;;8.50;5.13;;;180.10;2252.80;;;;;;5032901;28;20491;-53
2022/04/06 01:00:28;;;;;;;8.45;4.82;;;180.10;2252.80;;;;;;5033673;28;20174;-53
2022/04/06 01:02:54;;;;;;;14.07;7.25;;;204.80;2252.80;;;;;;5033569;28;20060;-53
2022/04/06 01:05:20;;;;;;;14.23;7.70;;;204.80;2252.80;;;;;;5033770;28;20071;-57
2022/04/06 01:07:51;;;;;;;13.32;7.80;;;180.00;2252.80;;;;;;5033534;28;20049;-56
2022/04/06 01:10:17;;;;;;;12.85;7.90;;;179.70;2252.80;;;;;;5033610;28;20033;-52
2022/04/06 01:12:47;;;;;;;13.88;5.90;;;179.50;2252.80;;;;;;5033565;28;20029;-53
2022/04/06 01:15:13;;;;;;;10.15;5.57;;;179.40;2252.80;;;;;;5033694;28;20037;-53
2022/04/06 01:17:39;;;;;;;19.58;9.77;;;179.60;2252.80;;;;;;5033657;28;20444;-53
2022/04/06 01:20:07;;;;;;;13.25;7.60;;;179.70;2252.80;;;;;;5033343;28;20033;-52
2022/04/06 01:22:33;;;;;;;10.20;5.93;;;179.80;2252.80;;;;;;5033487;28;20025;-57
2022/04/06 01:24:59;;;;;;;12.27;5.78;;;179.90;2252.80;;;;;;5033454;28;20112;-53
2022/04/06 01:27:24;;;;;;;13.32;6.28;;;179.90;2252.80;;;;;;5033129;28;20130;-54
2022/04/06 01:29:52;;;;;;;12.35;6.50;;;179.90;2252.80;;;;;;5033364;28;20045;-53
2022/04/06 01:32:20;;;;;;;11.45;8.30;;;180.00;2252.80;;;;;;5033135;28;20030;-57
2022/04/06 01:34:46;;;;;;;16.45;7.72;;;179.90;2252.80;;;;;;5033104;28;20430;-53
2022/04/06 01:37:14;;;;;;;11.80;6.35;;;179.70;2252.80;;;;;;5033326;28;20520;-53
2022/04/06 01:39:42;;;;;;;8.30;5.32;;;179.80;2252.80;;;;;;5033382;28;20029;-55
2022/04/06 01:42:09;;;;;;;9.23;6.40;;;179.80;2252.80;;;;;;5033197;28;20108;-53
2022/04/06 01:44:35;;;;;;;13.32;7.43;;;179.70;2252.80;;;;;;5033228;28;20029;-53
2022/04/06 01:47:03;;;;;;;12.90;8.50;;;179.60;2252.80;;;;;;5032983;28;20068;-57
2022/04/06 01:52:13;;;;;;;14.35;8.27;;;179.40;2252.80;;;;;;5033202;28;20036;-54
2022/04/06 01:54:51;;;;;;;15.05;7.95;;;154.40;2252.80;;;;;;5033128;28;20391;-53
2022/04/06 01:57:17;;;;;;;11.10;6.68;;;154.30;2252.80;;;;;;5032686;28;20434;-54
2022/04/06 01:59:44;;;;;;;8.30;5.28;;;154.50;2252.80;;;;;;5032748;28;20042;-54
2022/04/06 02:02:13;;;;;;;8.02;4.70;;;179.20;2252.80;;;;;;5032835;28;20113;-55
2022/04/06 02:04:39;;;;;;;14.35;6.40;;;179.40;2252.80;;;;;;5032907;28;20028;-54
2022/04/06 02:07:05;;;;;;;17.83;8.90;;;179.40;2252.80;;;;;;5032630;28;20060;-54
2022/04/06 02:09:31;;;;;;;13.25;8.32;;;179.30;2252.80;;;;;;5032161;28;20057;-55
2022/04/06 02:11:59;;;;;;;20.52;11.43;;;179.30;2252.80;;;;;;5032564;28;20369;-52
2022/04/06 02:14:25;;;;;;;17.45;10.55;;;179.30;2252.80;;;;;;5032350;28;20419;-55
2022/04/06 02:16:51;;;;;;;16.80;7.97;;;179.30;2252.80;;;;;;5032628;28;20535;-52
2022/04/06 02:19:17;;;;;;;23.40;10.85;;;179.30;2252.80;;;;;;5032429;28;20107;-53
2022/04/06 02:21:43;;;;;;;22.52;9.95;;;179.30;2252.80;;;;;;5032614;28;20475;-55
2022/04/06 02:24:08;;;;;;;22.58;11.93;;;179.30;2252.80;;;;;;5032488;28;20044;-53
2022/04/06 02:26:34;;;;;;;13.32;7.30;;;179.40;2252.80;;;;;;5031060;28;20491;-53
2022/04/06 02:29:00;;;;;;;8.93;4.68;;;179.40;2252.80;;;;;;5032168;28;20037;-54
2022/04/06 02:31:27;;;;;;;10.52;5.13;;;179.40;2252.80;;;;;;5032108;28;20026;-54
2022/04/06 02:33:52;;;;;;;9.50;5.13;;;179.40;2252.80;;;;;;5032171;28;20017;-52
2022/04/06 02:36:18;;;;;;;12.52;6.88;;;179.40;2252.80;;;;;;5031875;28;20033;-52
2022/04/06 02:38:45;;;;;;;18.38;8.88;;;179.50;2252.80;;;;;;5032063;28;20041;-57
2022/04/06 02:41:11;;;;;;;16.30;9.35;;;179.70;2252.80;;;;;;5032012;28;20476;-53
2022/04/06 02:43:37;;;;;;;11.63;6.97;;;179.60;2252.80;;;;;;5031956;28;20030;-54
2022/04/06 02:46:03;;;;;;;14.70;6.53;;;179.40;2252.80;;;;;;5032126;28;20052;-58
2022/04/06 02:48:29;;;;;;;15.00;6.63;;;179.40;2252.80;;;;;;5032163;28;20456;-54
2022/04/06 02:50:55;;;;;;;12.20;6.05;;;179.40;2252.80;;;;;;5031676;28;20450;-52
2022/04/06 02:53:21;;;;;;;11.77;5.30;;;179.30;2252.80;;;;;;5031829;28;20029;-53
2022/04/06 02:55:48;;;;;;;9.57;5.82;;;179.20;2252.80;;;;;;5031596;28;20038;-53
2022/04/06 02:58:14;;;;;;;13.95;6.45;;;154.50;2252.80;;;;;;5031460;28;20033;-55
2022/04/06 03:00:40;;;;;;;13.73;6.75;;;154.50;2252.80;;;;;;5031707;28;20057;-54
2022/04/06 03:03:06;;;;;;;10.38;6.07;;;179.20;2252.80;;;;;;5031611;28;20112;-53
2022/04/06 03:05:32;;;;;;;11.63;7.95;;;179.20;2252.80;;;;;;5031451;28;20061;-54
2022/04/06 03:07:57;;;;;;;17.42;9.07;;;179.20;2252.80;;;;;;5031352;28;20597;-53
2022/04/06 03:10:23;;;;;;;12.40;6.05;;;154.40;2252.80;;;;;;5031582;28;20179;-52
2022/04/06 03:12:49;;;;;;;19.95;13.00;;;154.40;2252.80;;;;;;5031475;28;20021;-58
2022/04/06 03:15:15;;;;;;;25.27;16.15;;;154.40;2252.80;;;;;;5029972;28;20432;-58
2022/04/06 03:17:41;;;;;;;28.42;13.55;;;154.50;2252.80;;;;;;5031540;28;20048;-53
2022/04/06 03:20:10;;;;;;;31.20;17.30;;;154.50;2252.80;;;;;;5030352;28;20028;-58
2022/04/06 03:22:36;;;;;;;25.15;14.60;;;179.20;2252.80;;;;;;5038610;28;20082;-52
2022/04/06 03:25:02;;;;;;;23.65;12.95;;;179.30;2252.80;;;;;;5041239;28;20018;-57
2022/04/06 03:27:28;;;;;;;10.10;5.13;;;179.40;2252.80;;;;;;5033866;28;20033;-55
2022/04/06 03:29:54;;;;;;;11.63;4.70;;;179.30;2252.80;;;;;;5030789;28;20523;-53
2022/04/06 03:32:20;;;;;;;9.23;4.25;;;179.40;2252.80;;;;;;5031250;28;20021;-58
2022/04/06 03:34:45;;;;;;;6.82;4.57;;;179.30;2252.80;;;;;;5030881;28;20076;-53
2022/04/06 03:37:11;;;;;;;8.40;5.05;;;179.30;2252.80;;;;;;5031036;28;20096;-53
2022/04/06 03:39:37;;;;;;;8.65;4.88;;;179.20;2252.80;;;;;;5030861;28;20029;-52
2022/04/06 03:42:03;;;;;;;9.95;6.10;;;154.50;2252.80;;;;;;5031165;28;20040;-55
2022/04/06 03:44:29;;;;;;;9.45;4.55;;;179.20;2252.80;;;;;;5031780;28;20067;-53
2022/04/06 03:46:56;;;;;;;9.00;6.13;;;154.50;2252.80;;;;;;5039885;28;20044;-57
2022/04/06 03:49:22;;;;;;;9.88;5.95;;;179.20;2252.80;;;;;;5041123;28;20036;-52
2022/04/06 03:51:47;;;;;;;8.15;4.93;;;154.50;2252.80;;;;;;5041099;28;20025;-53
2022/04/06 03:54:13;;;;;;;9.85;4.68;;;154.50;2252.80;;;;;;5043420;28;20475;-54
2022/04/06 03:56:40;;;;;;;11.07;5.07;;;154.50;2252.80;;;;;;5040948;28;20039;-54
2022/04/06 03:59:06;;;;;;;6.53;5.03;;;154.30;2252.80;;;;;;5040723;28;20025;-56
2022/04/06 04:01:35;;;;;;;16.75;7.72;;;154.40;2252.80;;;;;;5033241;28;20040;-52
2022/04/06 04:04:01;;;;;;;10.68;6.60;;;154.50;2252.80;;;;;;5030461;28;20454;-56
2022/04/06 04:06:27;;;;;;;61.53;40.75;;;154.40;2252.80;;;;;;5030510;28;20032;-56
2022/04/06 04:08:53;;;;;;;14.35;9.95;;;154.30;2252.80;;;;;;5030488;28;20066;-56
2022/04/06 04:11:18;;;;;;;14.23;7.68;;;154.30;2252.80;;;;;;5030418;28;20026;-57
2022/04/06 04:13:44;;;;;;;43.58;40.08;;;154.40;2252.80;;;;;;5030084;28;20030;-53
2022/04/06 04:16:10;;;;;;;20.13;12.93;;;154.50;2252.80;;;;;;5030450;28;20475;-53
2022/04/06 04:18:37;;;;;;;22.63;20.73;;;154.50;2252.80;;;;;;5030298;28;20044;-57
2022/04/06 04:23:47;;;;;;;9.57;8.50;;;154.50;2252.80;;;;;;5050387;28;20438;-52
2022/04/06 04:26:12;;;;;;;17.50;10.32;;;179.20;2252.80;;;;;;5050357;28;20032;-52
2022/04/06 04:28:38;;;;;;;13.10;8.82;;;154.50;2252.80;;;;;;5049733;28;20044;-54
2022/04/06 04:31:04;;;;;;;15.63;10.95;;;154.50;2252.80;;;;;;5050059;28;20029;-54
2022/04/06 04:33:30;;;;;;;13.18;7.30;;;179.30;2252.80;;;;;;5050102;28;20025;-58
2022/04/06 04:35:56;;;;;;;11.88;6.05;;;179.30;2252.80;;;;;;5049790;28;20071;-52
2022/04/06 04:38:22;;;;;;;11.32;5.95;;;179.30;2252.80;;;;;;5050105;28;20053;-58
2022/04/06 04:40:47;;;;;;;10.40;6.20;;;179.40;2252.80;;;;;;5049838;28;20032;-59
2022/04/06 04:43:13;;;;;;;11.18;6.28;;;179.60;2252.80;;;;;;5050149;28;20079;-58
2022/04/06 04:45:39;;;;;;;12.32;6.50;;;179.60;2252.80;;;;;;5050085;28;20017;-52
2022/04/06 04:48:04;;;;;;;12.20;6.55;;;179.40;2252.80;;;;;;5049855;28;20490;-53
2022/04/06 05:03:48;;;;;;;12.90;6.88;;;179.30;2252.80;;;;;;5088515;27;1353288;-55
2022/04/06 05:06:14;;;;;;;65.70;53.22;;;205.30;2252.80;;;;;;5107687;28;20036;-56
2022/04/06 05:08:40;;;;;;;17.08;10.65;;;281.60;2048.00;;;;;;5107566;28;20031;-58
2022/04/06 05:11:06;;;;;;;11.32;7.65;;;333.20;1792.00;;;;;;5107630;28;20020;-57
2022/04/06 05:13:31;;;;;;;10.30;5.80;;;358.50;1664.00;;;;;;5107594;28;20086;-57
2022/04/06 05:15:58;;;;;;;9.90;7.07;;;384.30;1510.40;;;;;;5107643;28;20056;-57
2022/04/06 05:18:25;;;;;;;11.80;6.90;;;410.00;1433.60;;;;;;5107607;28;20045;-58
2022/04/06 05:20:53;;;;;;;10.73;6.70;;;410.10;1459.20;;;;;;5107720;28;20046;-57
2022/04/06 05:23:19;;;;;;;17.50;10.43;;;435.60;1382.40;;;;;;5107446;28;20484;-57
2022/04/06 05:25:44;;;;;;;16.95;10.25;;;435.90;1382.40;;;;;;5107207;28;20058;-57
2022/04/06 05:28:10;;;;;;;16.00;10.93;;;435.30;1408.00;;;;;;5107391;28;20050;-57
2022/04/06 05:30:38;;;;;;;17.95;12.25;;;460.80;1382.40;;;;;;5107192;28;20031;-57
2022/04/06 05:33:04;;;;;;;20.67;16.80;;;461.50;1331.20;;;;;;5106884;28;20474;-58
2022/04/06 05:35:30;;;;;;;17.98;15.45;;;486.50;1305.60;;;;;;5107355;28;20441;-57
2022/04/06 05:37:57;;;;;;;15.82;10.90;;;486.90;1305.60;;;;;;5106751;28;20063;-58
2022/04/06 05:40:23;;;;;;;55.60;49.72;;;487.10;1280.00;;;;;;5107008;28;20453;-58
2022/04/06 05:42:49;;;;;;;41.67;32.80;;;486.60;1280.00;;;;;;5107195;28;20016;-58
2022/04/06 05:45:15;;;;;;;37.33;30.25;;;461.50;1331.20;;;;;;5106816;28;20072;-57
2022/04/06 05:47:42;;;;;;;43.17;36.15;;;487.30;1254.40;;;;;;5107117;28;20084;-58
2022/04/06 05:50:09;;;;;;;47.95;35.80;;;512.80;1203.20;;;;;;5107273;28;20031;-58
2022/04/06 05:52:35;;;;;;;48.45;37.83;;;512.60;1203.20;;;;;;5106645;28;20088;-59
2022/04/06 05:55:01;;;;;;;49.85;40.28;;;512.60;1203.20;;;;;;5106940;28;20024;-56
2022/04/06 05:57:28;;;;;;;40.28;33.95;;;512.30;1228.80;;;;;;5106881;28;20028;-58
2022/04/06 05:59:54;;;;;;;22.13;15.65;;;563.70;1177.60;;;;;;5106530;28;20016;-57
2022/04/06 06:02:23;;;;;;;15.65;11.95;;;487.30;1228.80;;;;;;5106572;28;20545;-57
2022/04/06 06:04:50;;;;;;;22.50;15.95;;;538.30;1152.00;;;;;;5092979;28;20103;-57
2022/04/06 06:07:17;;;;;;;17.10;15.27;;;614.80;1024.00;;;;;;5092925;28;20113;-58
2022/04/06 06:09:43;;;;;;;20.77;13.85;;;665.90;947.20;;;;;;5092872;28;20024;-58
2022/04/06 06:12:09;;;;;;;44.53;36.70;;;691.70;896.00;;;;;;5093046;28;20035;-58
2022/04/06 06:14:35;;;;;;;39.95;35.92;;;666.30;947.20;;;;;;5092725;28;20051;-58
2022/04/06 06:17:01;;;;;;;32.13;28.67;;;691.50;921.60;;;;;;5092919;28;20117;-58
2022/04/06 06:19:27;;;;;;;42.30;38.03;;;691.80;896.00;;;;;;5092584;28;20027;-58
2022/04/06 06:21:53;;;;;;;91.15;81.25;;;716.80;896.00;;;;;;5092596;28;20024;-58
2022/04/06 06:24:20;;;;;;;61.50;53.55;;;742.40;870.40;;;;;;5092676;28;20115;-58
2022/04/06 06:26:46;;;;;;;40.65;36.30;;;768.30;819.20;;;;;;5092524;28;20048;-59
2022/04/06 06:29:12;;;;;;;31.80;28.60;;;743.30;844.80;;;;;;5092364;28;20496;-59
2022/04/06 06:31:38;;;;;;;32.22;28.88;;;793.60;844.80;;;;;;5092554;28;20040;-58
2022/04/06 06:34:04;;;;;;;28.98;26.05;;;819.40;793.60;;;;;;5092648;28;20032;-58
2022/04/06 06:36:30;;;;;;;28.95;26.05;;;819.80;793.60;;;;;;5092589;28;20374;-58
2022/04/06 06:38:56;;;;;;;40.40;36.58;;;844.90;793.60;;;;;;5092241;28;20382;-60
2022/04/06 06:41:22;;;;;;;32.63;29.52;;;819.60;793.60;;;;;;5092427;28;20031;-60
2022/04/06 06:43:49;;;;;;;32.60;29.70;;;820.00;793.60;;;;;;5092476;28;20032;-61
2022/04/06 06:46:18;;;;;;;50.13;35.08;;;870.40;768.00;;;;;;5092135;28;20024;-60
2022/04/06 06:48:45;;;;;;;28.60;24.27;;;845.50;768.00;;;;;;5092056;28;20138;-62
2022/04/06 06:51:11;;;;;;;27.98;25.15;;;870.70;742.40;;;;;;5092164;28;20050;-61
2022/04/06 06:53:36;;;;;;;26.55;24.15;;;896.00;716.80;;;;;;5092219;28;20028;-61
2022/04/06 06:56:02;;;;;;;35.22;32.03;;;870.90;742.40;;;;;;5091990;28;20061;-61
2022/04/06 06:58:28;;;;;;;36.05;32.70;;;896.40;716.80;;;;;;5092056;28;20038;-62
2022/04/06 07:00:54;;;;;;;39.30;35.33;;;871.20;742.40;;;;;;5091693;28;20032;-63
2022/04/06 07:03:20;;;;;;;38.80;34.72;;;870.70;742.40;;;;;;5091842;28;20105;-62
2022/04/06 07:05:45;;;;;;;41.05;36.75;;;871.00;742.40;;;;;;5091779;28;20059;-61
2022/04/06 07:08:11;;;;;;;41.55;37.45;;;921.80;716.80;;;;;;5091774;28;20024;-63
2022/04/06 07:10:37;;;;;;;36.78;33.28;;;870.80;742.40;;;;;;5091988;28;20052;-62
2022/04/06 07:13:03;;;;;;;39.95;35.72;;;871.30;716.80;;;;;;5091488;28;20034;-62
2022/04/06 07:15:29;;;;;;;41.65;36.83;;;896.10;716.80;;;;;;5090737;28;20028;-62
2022/04/06 07:17:57;;;;;;;41.95;37.95;;;922.50;691.20;;;;;;5090145;28;20032;-63
2022/04/06 07:20:26;;;;;;;42.55;38.20;;;896.40;716.80;;;;;;5091397;28;20119;-64
2022/04/06 07:22:52;;;;;;;34.08;30.65;;;870.90;742.40;;;;;;5091087;28;20157;-62
2022/04/06 07:25:19;;;;;;;27.52;25.15;;;870.70;742.40;;;;;;5091688;28;20062;-62
2022/04/06 07:27:45;;;;;;;26.92;24.25;;;870.50;768.00;;;;;;5091322;28;20031;-65
2022/04/06 07:30:12;;;;;;;29.45;25.90;;;896.70;691.20;;;;;;5091399;28;20024;-62
2022/04/06 07:32:39;;;;;;;30.17;27.00;;;870.70;742.40;;;;;;5091396;28;20058;-61
2022/04/06 07:35:06;;;;;;;32.40;29.00;;;845.30;793.60;;;;;;5091203;28;20020;-63
2022/04/06 07:37:39;;;;;;;32.50;28.85;;;844.90;793.60;;;;;;5091210;28;20373;-67
2022/04/06 07:40:07;;;;;;;32.45;29.10;;;845.30;793.60;;;;;;5090948;28;20024;-63
2022/04/06 07:42:35;;;;;;;30.13;26.95;;;845.00;793.60;;;;;;5091052;28;20035;-63
2022/04/06 07:45:02;;;;;;;37.08;32.88;;;819.20;819.20;;;;;;5091030;28;20024;-62
2022/04/06 07:47:32;;;;;;;39.15;33.42;;;870.40;768.00;;;;;;5091198;28;20063;-63
2022/04/06 07:49:58;;;;;;;46.85;35.55;;;896.40;716.80;;;;;;5091160;28;20024;-64
2022/04/06 07:52:25;;;;;;;42.47;33.85;;;845.10;793.60;;;;;;5090833;28;20040;-62
2022/04/06 07:54:51;;;;;;;38.47;32.20;;;845.60;768.00;;;;;;5091035;28;20458;-62
2022/04/06 07:57:19;;;;;;;33.22;26.42;;;870.70;742.40;;;;;;5090725;28;20028;-63
2022/04/06 07:59:44;;;;;;;33.63;27.70;;;871.20;716.80;;;;;;5090804;28;20024;-61
2022/04/06 08:02:10;;;;;;;29.85;21.02;;;870.50;742.40;;;;;;5090862;28;20543;-63
2022/04/06 08:04:36;;;;;;;23.73;21.33;;;845.20;793.60;;;;;;5090880;28;20035;-62
2022/04/06 08:07:02;;;;;;;30.63;24.27;;;819.80;768.00;;;;;;5090575;28;20533;-62
2022/04/06 08:09:27;;;;;;;31.30;24.85;;;870.40;742.40;;;;;;5090702;28;20020;-63
2022/04/06 08:11:53;;;;;;;92.22;84.43;;;870.40;768.00;;;;;;5090670;28;20031;-64
2022/04/06 08:14:19;;;;;;;31.17;27.80;;;845.50;768.00;;;;;;5090701;28;20020;-62
2022/04/06 08:16:44;;;;;;;31.20;25.63;;;870.50;768.00;;;;;;5090725;28;20099;-63
2022/04/06 08:19:10;;;;;;;26.50;19.42;;;845.70;768.00;;;;;;5090687;28;20024;-64
2022/04/06 08:21:42;;;;;;;27.75;24.88;;;820.00;768.00;;;;;;5090415;28;20112;-61
2022/04/06 08:24:11;;;;;;;28.83;20.65;;;819.60;793.60;;;;;;5090676;28;20031;-62
2022/04/06 08:26:36;;;;;;;24.10;20.17;;;819.80;768.00;;;;;;5088907;28;20107;-63
2022/04/06 08:29:02;;;;;;;24.33;20.92;;;794.20;819.20;;;;;;5090207;28;20119;-63
2022/04/06 08:31:31;;;;;;;21.55;16.52;;;819.80;793.60;;;;;;5090411;28;20024;-64
2022/04/06 08:33:57;;;;;;;22.08;17.77;;;794.20;819.20;;;;;;5090327;28;20036;-65
2022/04/06 08:36:22;;;;;;;19.67;17.25;;;793.90;844.80;;;;;;5090086;28;20027;-64
2022/04/06 08:38:48;;;;;;;18.77;14.90;;;845.10;819.20;;;;;;5090328;28;20220;-64
2022/04/06 08:41:19;;;;;;;25.30;18.20;;;819.60;819.20;;;;;;5090053;28;20027;-61
2022/04/06 08:43:47;;;;;;;18.83;13.90;;;794.40;844.80;;;;;;5089985;28;20078;-62
2022/04/06 08:46:15;;;;;;;20.83;17.20;;;819.20;844.80;;;;;;5090160;28;20104;-62
2022/04/06 08:48:43;;;;;;;23.90;16.13;;;793.70;844.80;;;;;;5090392;28;20024;-61
2022/04/06 08:51:12;;;;;;;22.10;13.70;;;794.30;844.80;;;;;;5090352;28;20027;-61
2022/04/06 08:53:41;;;;;;;43.40;35.13;;;768.20;819.20;;;;;;5090336;28;20075;-60
2022/04/06 08:56:07;;;;;;;19.55;10.98;;;742.70;870.40;;;;;;5090142;28;20397;-61
2022/04/06 08:58:33;;;;;;;14.50;9.68;;;692.10;870.40;;;;;;5090117;28;20492;-61
2022/04/06 09:00:59;;;;;;;14.30;11.45;;;691.50;896.00;;;;;;5090135;28;20059;-61
2022/04/06 09:03:25;;;;;;;15.70;9.55;;;666.40;870.40;;;;;;5089609;28;20469;-61
2022/04/06 09:06:08;;;;;;;15.70;9.88;;;665.70;896.00;;;;;;5089986;28;20020;-61
2022/04/06 09:08:35;;;;;;;;;;;666.00;896.00;;;;;;5090136;28;20039;-61
2022/04/06 09:11:14;;;;;;;10.07;6.40;;;665.90;921.60;;;;;;5089909;28;19904;-61
2022/04/06 09:13:44;;;;;;;12.80;5.47;;;666.00;870.40;;;;;;5090248;28;20041;-61
2022/04/06 09:16:11;;;;;;;7.70;6.10;;;640.90;844.80;;;;;;5090349;28;20020;-61
2022/04/06 09:18:45;;;;;;;15.38;11.00;;;640.70;844.80;;;;;;5090159;28;20032;-61
2022/04/06 09:21:13;;;;;;;13.48;7.38;;;640.80;844.80;;;;;;5089812;28;20028;-61
2022/04/06 09:23:39;;;;;;;6.45;4.90;;;640.70;844.80;;;;;;5089912;28;20107;-61
2022/04/06 09:26:08;;;;;;;8.65;5.07;;;640.20;870.40;;;;;;5090014;28;20103;-61
2022/04/06 09:28:38;;;;;;;10.88;5.15;;;615.30;870.40;;;;;;5089898;28;20105;-61
2022/04/06 09:31:04;;;;;;;14.73;7.60;;;640.00;870.40;;;;;;5089415;28;20081;-60
2022/04/06 09:33:30;;;;;;;9.57;7.25;;;640.00;870.40;;;;;;5089966;28;20040;-61
2022/04/06 09:35:58;;;;;;;15.50;9.27;;;640.10;870.40;;;;;;5089681;28;20153;-60
2022/04/06 09:38:27;;;;;;;6.93;5.20;;;615.30;870.40;;;;;;5090660;28;20426;-62
2022/04/06 09:41:11;;;;;;;6.15;4.85;;;615.20;870.40;;;;;;5093287;28;20038;-61
2022/04/06 09:43:38;;;;;;;8.38;5.45;;;615.30;870.40;;;;;;5093798;28;20385;-61
2022/04/06 09:49:02;;;;;;;7.90;5.03;;;615.00;844.80;;;;;;5093385;28;20031;-62
2022/04/06 09:51:29;;;;;;;8.65;4.20;;;614.80;870.40;;;;;;5093555;28;20028;-62
2022/04/06 09:53:55;;;;;;;5.90;4.32;;;615.00;870.40;;;;;;5093093;28;20032;-61
2022/04/06 09:56:21;;;;;;;6.25;4.00;;;615.30;870.40;;;;;;5093244;28;20061;-61
2022/04/06 09:58:48;;;;;;;5.90;3.47;;;640.00;870.40;;;;;;5093303;28;20103;-61
2022/04/06 10:01:14;;;;;;;8.38;5.38;;;615.30;844.80;;;;;;5092765;28;20021;-62
2022/04/06 10:03:44;;;;;;;6.50;4.18;;;640.00;870.40;;;;;;5093045;28;20051;-62
2022/04/06 10:06:10;;;;;;;11.32;7.28;;;614.90;870.40;;;;;;5093143;28;20024;-60
2022/04/06 10:08:38;;;;;;;50.42;35.78;;;615.10;896.00;;;;;;5093039;28;20434;-61
2022/04/06 10:11:05;;;;;;;13.32;7.18;;;615.00;896.00;;;;;;5092869;28;20055;-61
2022/04/06 10:13:32;;;;;;;10.70;6.35;;;615.30;921.60;;;;;;5093039;28;20027;-61
2022/04/06 10:15:58;;;;;;;9.68;4.30;;;615.20;870.40;;;;;;5092914;28;20081;-61
2022/04/06 10:18:27;;;;;;;5.72;4.47;;;615.20;870.40;;;;;;5092702;28;20089;-61
2022/04/06 10:21:18;;;;;;;16.63;11.07;;;614.60;896.00;;;;;;5092784;28;20170;-61
2022/04/06 10:23:55;;;;;;;6.72;5.10;;;614.90;896.00;;;;;;5092619;28;20043;-62
2022/04/06 10:26:44;;;;;;;34.03;20.05;;;615.00;896.00;;;;;;5092781;28;20048;-61
2022/04/06 10:29:10;;;;;;;5.80;4.47;;;615.00;896.00;;;;;;5092728;28;20422;-61
2022/04/06 10:31:36;;;;;;;8.13;3.70;;;614.90;870.40;;;;;;5092420;28;20070;-61
2022/04/06 10:34:27;;;;;;;7.88;4.55;;;614.70;896.00;;;;;;5092685;28;20073;-61
2022/04/06 10:37:12;;;;;;;7.03;4.18;;;614.70;896.00;;;;;;5092314;28;20073;-62
2022/04/06 10:39:57;;;;;;;6.40;3.75;;;614.50;896.00;;;;;;5092800;28;20024;-61
2022/04/06 10:42:33;;;;;;;10.75;4.95;;;614.60;921.60;;;;;;5084570;28;20428;-61
2022/04/06 10:44:59;;;;;;;9.48;4.72;;;614.60;921.60;;;;;;5072040;28;20021;-61
2022/04/06 10:47:25;;;;;;;7.28;4.90;;;614.60;947.20;;;;;;5071875;28;20025;-60
2022/04/06 10:50:16;;;;;;;7.20;3.72;;;614.70;921.60;;;;;;5071939;28;20088;-61
2022/04/06 10:52:44;;;;;;;8.05;7.25;;;614.50;921.60;;;;;;5071939;28;20159;-62
2022/04/06 10:55:20;;;;;;;47.38;28.23;;;614.50;921.60;;;;;;5072001;28;20063;-61
2022/04/06 10:58:01;;;;;;;8.25;4.15;;;614.80;896.00;;;;;;5071735;28;20474;-62
2022/04/06 11:00:27;;;;;;;7.10;3.75;;;614.60;947.20;;;;;;5071485;28;20459;-61
2022/04/06 11:02:53;;;;;;;7.20;3.70;;;614.50;921.60;;;;;;5071184;28;20044;-61
2022/04/06 11:05:52;;;;;;;6.60;5.38;;;614.40;947.20;;;;;;5071712;28;20028;-60
2022/04/06 11:11:45;;;;;;;10.70;8.30;;;614.40;921.60;;;;;;5071735;28;20108;-60
2022/04/06 11:14:12;;;;;;;5.10;3.90;;;614.70;947.20;;;;;;5071554;28;20020;-60
2022/04/06 11:16:48;;;;;;;5.45;4.20;;;614.50;947.20;;;;;;5071590;28;20031;-61
2022/04/06 11:19:14;;;;;;;8.32;4.03;;;615.00;972.80;;;;;;5071159;28;20052;-63
2022/04/06 11:21:49;;;;;;;6.05;3.45;;;614.80;947.20;;;;;;5071228;28;20024;-61
2022/04/06 11:24:28;;;;;;;8.07;5.05;;;614.70;947.20;;;;;;5071126;28;20501;-60
2022/04/06 11:26:54;;;;;;;4.10;2.92;;;614.90;998.40;;;;;;5071111;28;20029;-60
2022/04/06 11:29:26;;;;;;;4.47;3.38;;;614.80;947.20;;;;;;5071229;28;20428;-61
2022/04/06 11:31:56;;;;;;;10.73;3.28;;;614.90;947.20;;;;;;5071035;28;20028;-60
2022/04/06 11:34:36;;;;;;;5.32;3.17;;;614.80;921.60;;;;;;5071069;28;20588;-60
2022/04/06 11:37:03;;;;;;;4.65;2.90;;;614.80;947.20;;;;;;5071036;28;20039;-60
2022/04/06 11:39:30;;;;;;;13.25;7.18;;;615.00;998.40;;;;;;5070775;28;20032;-61
2022/04/06 11:41:57;;;;;;;4.90;3.78;;;614.90;947.20;;;;;;5070661;28;20044;-60
2022/04/06 11:44:24;;;;;;;6.55;4.25;;;614.80;947.20;;;;;;5070594;28;20032;-60
2022/04/06 11:46:52;;;;;;;7.25;3.88;;;614.80;947.20;;;;;;5071041;28;20040;-60
2022/04/06 11:49:29;;;;;;;36.60;28.65;;;614.80;947.20;;;;;;5070745;28;20027;-60
2022/04/06 11:51:57;;;;;;;10.90;6.40;;;615.00;947.20;;;;;;5070709;28;20112;-60
2022/04/06 11:54:24;;;;;;;22.05;11.00;;;614.90;947.20;;;;;;5070398;28;20044;-60
2022/04/06 11:56:54;;;;;;;16.10;10.85;;;614.80;947.20;;;;;;5070550;28;20382;-60
2022/04/06 11:59:22;;;;;;;7.57;4.72;;;614.70;947.20;;;;;;5070554;28;20032;-60
2022/04/06 12:01:48;;;;;;;9.23;5.00;;;614.60;947.20;;;;;;5070090;28;20041;-60
2022/04/06 12:04:25;;;;;;;8.13;5.03;;;614.80;947.20;;;;;;5070134;28;20056;-60
2022/04/06 12:06:52;;;;;;;7.05;4.18;;;614.90;947.20;;;;;;5070474;28;20490;-62
2022/04/06 12:09:19;;;;;;;6.90;4.57;;;614.70;947.20;;;;;;5070437;28;20021;-60
2022/04/06 12:11:50;;;;;;;6.18;4.03;;;614.80;947.20;;;;;;5070399;28;20019;-60
2022/04/06 12:14:16;;;;;;;4.78;2.88;;;614.70;947.20;;;;;;5070242;28;20478;-59
2022/04/06 12:16:43;;;;;;;6.80;4.47;;;614.80;947.20;;;;;;5070062;28;20111;-60
2022/04/06 12:19:13;;;;;;;5.75;2.80;;;615.00;947.20;;;;;;5069437;28;20118;-59
2022/04/06 12:21:44;;;;;;;3.95;2.67;;;614.80;947.20;;;;;;5068354;28;20085;-62
2022/04/06 12:24:11;;;;;;;6.60;3.40;;;614.70;947.20;;;;;;5068603;28;20025;-60
2022/04/06 12:26:54;;;;;;;5.70;3.00;;;614.80;947.20;;;;;;5068607;28;20029;-60
2022/04/06 12:29:20;;;;;;;7.05;3.35;;;614.70;947.20;;;;;;5068853;28;20135;-60
2022/04/06 12:31:46;;;;;;;5.00;2.75;;;614.80;947.20;;;;;;5068353;28;20041;-60
2022/04/06 12:34:30;;;;;;;6.93;3.35;;;614.90;947.20;;;;;;5068072;28;20051;-60
2022/04/06 12:36:56;;;;;;;4.43;2.80;;;614.80;921.60;;;;;;5068462;28;20037;-61
2022/04/06 12:39:23;;;;;;;7.47;3.78;;;614.90;921.60;;;;;;5068663;28;20024;-61